createdAt,value
2018-12-29T00:02:39.557Z,81.42
2018-12-29T00:05:44.914Z,81.24
2018-12-29T00:08:50.187Z,80.96
2018-12-29T00:11:55.584Z,80.84
2018-12-29T00:15:00.864Z,80.94
2018-12-29T00:18:06.585Z,81.00
2018-12-29T00:21:11.868Z,81.10
2018-12-29T00:24:17.271Z,81.01
2018-12-29T00:27:22.651Z,81.12
2018-12-29T00:30:28.174Z,81.06
2018-12-29T00:33:33.450Z,80.96
2018-12-29T00:36:38.856Z,80.88
2018-12-29T00:39:44.132Z,81.02
2018-12-29T00:42:49.545Z,81.13
2018-12-29T00:45:54.830Z,81.21
2018-12-29T00:49:00.241Z,81.42
2018-12-29T00:52:05.524Z,81.50
2018-12-29T00:55:10.928Z,81.61
2018-12-29T00:58:16.211Z,81.63
2018-12-29T01:01:21.622Z,81.64
2018-12-29T01:04:26.889Z,81.62
2018-12-29T01:07:32.304Z,81.66
2018-12-29T01:10:37.583Z,81.69
2018-12-29T01:13:42.992Z,81.80
2018-12-29T01:16:48.269Z,81.83
2018-12-29T01:19:53.685Z,81.61
2018-12-29T01:22:58.961Z,81.84
2018-12-29T01:26:04.373Z,82.00
2018-12-29T01:29:09.748Z,81.93
2018-12-29T01:32:15.268Z,82.12
2018-12-29T01:35:20.544Z,82.00
2018-12-29T01:38:25.956Z,81.98
2018-12-29T01:41:31.230Z,81.94
2018-12-29T01:44:36.750Z,81.95
2018-12-29T01:47:42.019Z,81.90
2018-12-29T01:50:47.435Z,81.90
2018-12-29T01:53:53.061Z,81.80
2018-12-29T01:56:58.537Z,81.80
2018-12-29T02:00:04.628Z,81.91
2018-12-29T02:03:09.993Z,81.88
2018-12-29T02:06:15.337Z,81.89
2018-12-29T02:09:20.798Z,81.89
2018-12-29T02:12:26.067Z,82.02
2018-12-29T02:15:31.523Z,82.05
2018-12-29T02:18:36.800Z,82.02
2018-12-29T02:21:42.216Z,81.85
2018-12-29T02:24:47.492Z,81.76
2018-12-29T02:27:53.006Z,81.81
2018-12-29T02:30:58.381Z,81.50
2018-12-29T02:34:03.904Z,81.52
2018-12-29T02:37:09.180Z,81.43
2018-12-29T02:40:14.596Z,81.40
2018-12-29T02:43:19.864Z,81.48
2018-12-29T02:46:25.279Z,81.51
2018-12-29T02:49:30.564Z,81.63
2018-12-29T02:52:35.970Z,81.66
2018-12-29T02:55:41.244Z,81.67
2018-12-29T02:58:46.643Z,81.46
2018-12-29T03:01:51.921Z,81.69
2018-12-29T03:04:57.346Z,81.61
2018-12-29T03:08:02.630Z,81.37
2018-12-29T03:11:08.140Z,81.39
2018-12-29T03:14:13.486Z,81.38
2018-12-29T03:17:18.933Z,81.42
2018-12-29T03:20:24.210Z,81.50
2018-12-29T03:23:29.624Z,81.50
2018-12-29T03:26:34.897Z,81.45
2018-12-29T03:29:40.307Z,81.34
2018-12-29T03:32:45.755Z,81.21
2018-12-29T03:35:51.206Z,81.28
2018-12-29T03:38:56.480Z,81.26
2018-12-29T03:42:01.893Z,81.15
2018-12-29T03:45:07.238Z,81.14
2018-12-29T03:48:12.602Z,81.00
2018-12-29T03:51:17.876Z,81.05
2018-12-29T03:54:23.236Z,81.12
2018-12-29T03:57:28.505Z,81.13
2018-12-29T04:00:33.887Z,81.02
2018-12-29T04:03:39.234Z,81.09
2018-12-29T04:06:44.646Z,81.20
2018-12-29T04:09:50.369Z,80.98
2018-12-29T04:12:55.852Z,81.11
2018-12-29T04:16:01.124Z,81.05
2018-12-29T04:19:06.537Z,81.10
2018-12-29T04:22:11.822Z,81.10
2018-12-29T04:25:17.235Z,81.03
2018-12-29T04:28:22.512Z,81.00
2018-12-29T04:31:27.877Z,80.85
2018-12-29T04:34:33.154Z,80.71
2018-12-29T04:37:38.709Z,80.78
2018-12-29T04:40:43.985Z,80.71
2018-12-29T04:43:49.393Z,80.69
2018-12-29T04:46:54.670Z,80.77
2018-12-29T04:50:00.241Z,80.77
2018-12-29T04:53:05.710Z,80.82
2018-12-29T04:56:11.448Z,80.79
2018-12-29T04:59:16.719Z,80.86
2018-12-29T05:02:22.183Z,80.82
2018-12-29T05:05:27.464Z,80.86
2018-12-29T05:08:32.824Z,80.30
2018-12-29T05:11:38.097Z,80.51
2018-12-29T05:14:43.564Z,80.80
2018-12-29T05:17:48.835Z,80.69
2018-12-29T05:20:54.248Z,80.52
2018-12-29T05:23:59.575Z,80.59
2018-12-29T05:27:05.055Z,80.32
2018-12-29T05:30:10.401Z,80.28
2018-12-29T05:33:15.767Z,79.90
2018-12-29T05:36:21.109Z,79.77
2018-12-29T05:39:26.478Z,79.76
2018-12-29T05:42:31.751Z,80.04
2018-12-29T05:45:37.216Z,80.54
2018-12-29T05:48:42.535Z,80.52
2018-12-29T05:51:47.900Z,80.71
2018-12-29T05:54:53.178Z,80.74
2018-12-29T05:57:58.587Z,80.55
2018-12-29T06:01:03.864Z,80.62
2018-12-29T06:04:09.299Z,80.67
2018-12-29T06:07:14.577Z,80.77
2018-12-29T06:10:19.939Z,80.71
2018-12-29T06:13:25.219Z,80.63
2018-12-29T06:16:30.656Z,80.79
2018-12-29T06:19:35.928Z,80.57
2018-12-29T06:22:41.376Z,80.48
2018-12-29T06:25:46.654Z,80.34
2018-12-29T06:28:52.138Z,80.07
2018-12-29T06:31:57.418Z,80.22
2018-12-29T06:35:02.848Z,80.33
2018-12-29T06:38:08.201Z,79.97
2018-12-29T06:41:13.618Z,79.31
2018-12-29T06:44:21.616Z,79.41
2018-12-29T06:47:27.368Z,79.52
2018-12-29T06:50:32.603Z,79.40
2018-12-29T06:53:38.014Z,79.53
2018-12-29T06:56:43.256Z,79.56
2018-12-29T06:59:48.653Z,79.47
2018-12-29T07:02:53.928Z,79.26
2018-12-29T07:05:59.753Z,79.45
2018-12-29T07:09:07.167Z,79.42
2018-12-29T07:12:12.526Z,79.41
2018-12-29T07:15:17.795Z,79.24
2018-12-29T07:18:23.180Z,79.60
2018-12-29T07:21:28.451Z,79.27
2018-12-29T07:24:34.177Z,79.47
2018-12-29T07:27:39.451Z,79.24
2018-12-29T07:30:44.868Z,79.25
2018-12-29T07:33:50.148Z,79.18
2018-12-29T07:36:55.555Z,79.08
2018-12-29T07:40:00.931Z,79.23
2018-12-29T07:43:06.350Z,79.33
2018-12-29T07:46:11.633Z,79.27
2018-12-29T07:49:17.035Z,79.26
2018-12-29T07:52:22.315Z,79.11
2018-12-29T07:55:27.725Z,79.43
2018-12-29T07:58:33.001Z,79.25
2018-12-29T08:01:38.412Z,79.56
2018-12-29T08:04:43.697Z,79.50
2018-12-29T08:07:49.062Z,79.50
2018-12-29T08:10:54.340Z,79.26
2018-12-29T08:13:59.792Z,79.18
2018-12-29T08:17:05.217Z,79.32
2018-12-29T08:20:10.649Z,79.27
2018-12-29T08:23:15.997Z,79.38
2018-12-29T08:26:21.372Z,79.07
2018-12-29T08:29:26.669Z,79.38
2018-12-29T08:32:32.422Z,79.28
2018-12-29T08:35:37.896Z,79.35
2018-12-29T08:38:43.585Z,79.17
2018-12-29T08:41:48.946Z,79.19
2018-12-29T08:44:54.620Z,78.63
2018-12-29T08:48:00.044Z,78.65
2018-12-29T08:51:05.975Z,79.42
2018-12-29T08:54:11.342Z,79.20
2018-12-29T08:57:17.034Z,79.18
2018-12-29T09:00:22.309Z,78.96
2018-12-29T09:03:27.965Z,78.52
2018-12-29T09:06:33.569Z,78.78
2018-12-29T09:09:38.964Z,78.49
2018-12-29T09:12:44.310Z,78.04
2018-12-29T09:15:49.856Z,78.16
2018-12-29T09:18:55.305Z,77.60
2018-12-29T09:22:00.748Z,77.19
2018-12-29T09:25:06.597Z,77.30
2018-12-29T09:28:12.067Z,77.36
2018-12-29T09:31:18.222Z,77.20
2018-12-29T09:34:23.768Z,77.52
2018-12-29T09:37:29.049Z,76.86
2018-12-29T09:40:34.490Z,76.82
2018-12-29T09:43:39.764Z,77.07
2018-12-29T09:46:45.144Z,77.12
2018-12-29T09:49:50.422Z,77.52
2018-12-29T09:52:56.045Z,77.35
2018-12-29T09:56:01.323Z,77.84
2018-12-29T09:59:06.729Z,77.66
2018-12-29T10:02:12.075Z,77.40
2018-12-29T10:05:17.624Z,77.68
2018-12-29T10:08:22.903Z,78.17
2018-12-29T10:11:28.312Z,77.29
2018-12-29T10:14:33.588Z,77.17
2018-12-29T10:17:39.000Z,77.85
2018-12-29T10:20:44.275Z,78.34
2018-12-29T10:23:49.642Z,77.25
2018-12-29T10:26:54.908Z,77.81
2018-12-29T10:30:00.268Z,78.01
2018-12-29T10:33:07.087Z,77.54
2018-12-29T10:36:12.500Z,77.67
2018-12-29T10:39:17.773Z,77.03
2018-12-29T10:42:23.129Z,76.80
2018-12-29T10:45:28.466Z,77.34
2018-12-29T10:48:33.880Z,77.29
2018-12-29T10:51:39.155Z,76.73
2018-12-29T10:54:44.567Z,76.77
2018-12-29T10:57:49.889Z,77.03
2018-12-29T11:00:55.301Z,76.96
2018-12-29T11:04:00.576Z,76.28
2018-12-29T11:07:06.048Z,76.59
2018-12-29T11:10:11.398Z,76.36
2018-12-29T11:13:16.766Z,76.26
2018-12-29T11:16:22.216Z,75.95
2018-12-29T11:19:27.733Z,76.25
2018-12-29T11:22:33.007Z,76.68
2018-12-29T11:25:38.423Z,77.33
2018-12-29T11:28:43.721Z,76.37
2018-12-29T11:31:49.217Z,76.61
2018-12-29T11:34:54.495Z,76.92
2018-12-29T11:37:59.903Z,77.12
2018-12-29T11:41:05.185Z,76.64
2018-12-29T11:44:10.592Z,76.79
2018-12-29T11:47:15.968Z,77.21
2018-12-29T11:50:21.747Z,77.28
2018-12-29T11:53:27.023Z,77.13
2018-12-29T11:56:32.410Z,77.39
2018-12-29T11:59:37.688Z,77.37
2018-12-29T12:02:43.173Z,77.23
2018-12-29T12:05:48.499Z,76.86
2018-12-29T12:08:53.922Z,76.70
2018-12-29T12:11:59.567Z,77.12
2018-12-29T12:15:06.636Z,77.04
2018-12-29T12:18:11.942Z,76.64
2018-12-29T12:21:17.316Z,76.79
2018-12-29T12:24:22.589Z,77.08
2018-12-29T12:27:27.951Z,76.93
2018-12-29T12:30:33.604Z,76.72
2018-12-29T12:33:39.077Z,77.53
2018-12-29T12:36:44.355Z,77.58
2018-12-29T12:39:49.772Z,77.80
2018-12-29T12:42:55.049Z,78.07
2018-12-29T12:46:00.451Z,78.28
2018-12-29T12:49:05.834Z,78.55
2018-12-29T12:52:11.612Z,78.75
2018-12-29T12:55:16.895Z,78.64
2018-12-29T12:58:22.343Z,78.66
2018-12-29T13:01:27.998Z,78.53
2018-12-29T13:04:33.459Z,79.12
2018-12-29T13:07:38.749Z,79.07
2018-12-29T13:10:44.237Z,79.30
2018-12-29T13:13:49.518Z,79.34
2018-12-29T13:16:54.922Z,79.56
2018-12-29T13:20:00.268Z,79.64
2018-12-29T13:23:05.724Z,79.36
2018-12-29T13:26:11.000Z,78.19
2018-12-29T13:29:16.403Z,78.59
2018-12-29T13:32:21.963Z,78.56
2018-12-29T13:35:27.578Z,78.48
2018-12-29T13:38:32.853Z,78.43
2018-12-29T13:41:38.289Z,78.80
2018-12-29T13:44:43.943Z,78.62
2018-12-29T13:47:49.395Z,78.61
2018-12-29T13:50:54.761Z,79.20
2018-12-29T13:54:00.120Z,78.84
2018-12-29T13:57:06.511Z,79.36
2018-12-29T14:00:12.297Z,78.91
2018-12-29T14:03:17.555Z,78.95
2018-12-29T14:06:23.092Z,79.07
2018-12-29T14:09:28.369Z,78.68
2018-12-29T14:12:33.911Z,78.86
2018-12-29T14:15:39.608Z,78.67
2018-12-29T14:18:45.084Z,78.90
2018-12-29T14:21:50.359Z,78.81
2018-12-29T14:24:56.523Z,78.91
2018-12-29T14:28:01.801Z,79.15
2018-12-29T14:31:07.491Z,78.87
2018-12-29T14:34:12.770Z,78.80
2018-12-29T14:37:18.182Z,79.02
2018-12-29T14:40:23.464Z,79.07
2018-12-29T14:43:29.350Z,78.83
2018-12-29T14:46:34.857Z,78.72
2018-12-29T14:49:40.319Z,78.63
2018-12-29T14:52:45.981Z,78.53
2018-12-29T14:55:51.374Z,78.50
2018-12-29T14:58:56.646Z,78.44
2018-12-29T15:02:02.010Z,78.51
2018-12-29T15:05:07.355Z,78.39
2018-12-29T15:08:12.760Z,78.18
2018-12-29T15:11:19.627Z,78.32
2018-12-29T15:14:25.653Z,78.37
2018-12-29T15:17:30.924Z,78.10
2018-12-29T15:20:36.660Z,78.26
2018-12-29T15:23:42.312Z,78.48
2018-12-29T15:26:48.096Z,78.63
2018-12-29T15:29:54.119Z,78.64
2018-12-29T15:32:59.504Z,78.72
2018-12-29T15:36:04.788Z,78.85
2018-12-29T15:39:10.197Z,78.92
2018-12-29T15:42:15.468Z,78.99
2018-12-29T15:45:20.919Z,78.79
2018-12-29T15:48:26.205Z,78.77
2018-12-29T15:51:31.566Z,79.02
2018-12-29T15:54:36.949Z,78.77
2018-12-29T15:57:42.365Z,78.27
2018-12-29T16:00:50.141Z,78.28
2018-12-29T16:03:55.613Z,78.15
2018-12-29T16:07:00.892Z,78.15
2018-12-29T16:10:07.321Z,78.02
2018-12-29T16:13:12.595Z,78.05
2018-12-29T16:16:18.013Z,78.04
2018-12-29T16:19:23.368Z,77.96
2018-12-29T16:22:28.812Z,77.73
2018-12-29T16:25:34.088Z,77.84
2018-12-29T16:28:39.505Z,78.00
2018-12-29T16:31:45.157Z,78.33
2018-12-29T16:34:50.999Z,78.12
2018-12-29T16:37:56.290Z,78.02
2018-12-29T16:41:01.695Z,78.07
2018-12-29T16:44:07.397Z,77.93
2018-12-29T16:47:13.045Z,77.81
2018-12-29T16:50:18.329Z,77.59
2018-12-29T16:53:29.138Z,77.41
2018-12-29T16:56:30.900Z,77.34
2018-12-29T16:59:36.329Z,77.44
2018-12-29T17:02:41.668Z,77.12
2018-12-29T17:05:47.420Z,77.15
2018-12-29T17:08:52.749Z,77.26
2018-12-29T17:11:58.211Z,77.13
2018-12-29T17:15:03.489Z,77.35
2018-12-29T17:18:09.012Z,77.83
2018-12-29T17:21:14.290Z,77.36
2018-12-29T17:24:19.736Z,77.61
2018-12-29T17:27:25.025Z,77.28
2018-12-29T17:30:30.792Z,77.37
2018-12-29T17:33:37.288Z,77.22
2018-12-29T17:36:44.356Z,77.36
2018-12-29T17:39:49.633Z,76.87
2018-12-29T17:42:55.038Z,77.25
2018-12-29T17:46:00.311Z,77.42
2018-12-29T17:49:05.725Z,77.50
2018-12-29T17:52:11.012Z,77.82
2018-12-29T17:55:16.419Z,77.67
2018-12-29T17:58:22.107Z,78.04
2018-12-29T18:01:27.522Z,77.78
2018-12-29T18:04:32.969Z,78.18
2018-12-29T18:07:38.412Z,78.61
2018-12-29T18:10:43.689Z,78.70
2018-12-29T18:13:49.097Z,78.99
2018-12-29T18:16:54.649Z,78.87
2018-12-29T18:20:00.300Z,79.06
2018-12-29T18:23:05.729Z,78.98
2018-12-29T18:26:11.195Z,78.84
2018-12-29T18:29:16.476Z,79.28
2018-12-29T18:32:22.302Z,79.39
2018-12-29T18:35:27.574Z,79.30
2018-12-29T18:38:32.988Z,79.78
2018-12-29T18:41:38.271Z,79.66
2018-12-29T18:44:43.977Z,79.97
2018-12-29T18:47:49.309Z,80.00
2018-12-29T18:50:54.768Z,79.83
2018-12-29T18:54:00.045Z,80.08
2018-12-29T18:57:05.876Z,80.05
2018-12-29T19:00:11.245Z,80.27
2018-12-29T19:03:16.636Z,80.42
2018-12-29T19:06:21.913Z,80.63
2018-12-29T19:09:27.349Z,80.88
2018-12-29T19:12:32.937Z,80.96
2018-12-29T19:15:38.344Z,80.98
2018-12-29T19:18:43.629Z,81.11
2018-12-29T19:21:49.373Z,81.42
2018-12-29T19:24:54.656Z,81.88
2018-12-29T19:28:00.144Z,82.00
2018-12-29T19:31:05.905Z,81.98
2018-12-29T19:34:11.846Z,81.98
2018-12-29T19:37:17.128Z,82.02
2018-12-29T19:40:22.543Z,81.97
2018-12-29T19:43:28.199Z,82.03
2018-12-29T19:46:33.635Z,81.99
2018-12-29T19:49:38.917Z,81.93
2018-12-29T19:52:44.321Z,81.90
2018-12-29T19:55:49.609Z,81.76
2018-12-29T19:58:55.015Z,81.64
2018-12-29T20:02:00.390Z,81.35
2018-12-29T20:05:06.009Z,81.30
2018-12-29T20:08:11.291Z,81.06
2018-12-29T20:11:16.662Z,80.92
2018-12-29T20:14:21.932Z,80.78
2018-12-29T20:17:34.666Z,80.78
2018-12-29T20:20:34.437Z,80.76
2018-12-29T20:23:39.819Z,80.48
2018-12-29T20:26:45.227Z,80.33
2018-12-29T20:29:50.612Z,80.49
2018-12-29T20:32:59.056Z,80.61
2018-12-29T20:36:03.243Z,80.45
2018-12-29T20:39:08.581Z,80.54
2018-12-29T20:42:14.035Z,80.48
2018-12-29T20:45:19.692Z,80.57
2018-12-29T20:48:25.532Z,80.88
2018-12-29T20:51:30.787Z,80.66
2018-12-29T20:54:36.233Z,80.37
2018-12-29T20:57:41.521Z,80.40
2018-12-29T21:00:46.927Z,80.32
2018-12-29T21:03:52.458Z,80.34
2018-12-29T21:06:58.088Z,80.00
2018-12-29T21:10:03.555Z,79.90
2018-12-29T21:13:08.920Z,79.89
2018-12-29T21:16:14.201Z,79.78
2018-12-29T21:19:19.608Z,79.75
2018-12-29T21:22:24.887Z,79.77
2018-12-29T21:25:30.297Z,79.67
2018-12-29T21:28:35.568Z,79.66
2018-12-29T21:31:40.983Z,79.49
2018-12-29T21:34:46.270Z,79.49
2018-12-29T21:37:51.981Z,79.48
2018-12-29T21:40:57.268Z,79.62
2018-12-29T21:44:02.628Z,79.78
2018-12-29T21:47:07.978Z,79.69
2018-12-29T21:50:13.333Z,79.71
2018-12-29T21:53:18.606Z,79.65
2018-12-29T21:56:24.049Z,79.37
2018-12-29T21:59:29.324Z,79.46
2018-12-29T22:02:35.150Z,79.57
2018-12-29T22:05:40.492Z,79.32
2018-12-29T22:08:45.939Z,79.31
2018-12-29T22:11:51.222Z,79.26
2018-12-29T22:14:56.632Z,79.11
2018-12-29T22:18:01.917Z,79.07
2018-12-29T22:21:07.320Z,79.13
2018-12-29T22:24:12.878Z,79.30
2018-12-29T22:27:18.321Z,79.32
2018-12-29T22:30:23.602Z,79.33
2018-12-29T22:33:29.004Z,79.18
2018-12-29T22:36:34.280Z,79.07
2018-12-29T22:39:39.705Z,79.25
2018-12-29T22:42:45.019Z,79.08
2018-12-29T22:45:50.851Z,78.98
2018-12-29T22:48:56.125Z,78.64
2018-12-29T22:52:01.583Z,78.74
2018-12-29T22:55:07.024Z,78.71
2018-12-29T22:58:12.788Z,78.37
2018-12-29T23:01:18.274Z,78.42
2018-12-29T23:04:23.640Z,78.03
2018-12-29T23:07:28.954Z,78.28
2018-12-29T23:10:34.372Z,78.50
2018-12-29T23:13:40.033Z,78.28
2018-12-29T23:16:45.470Z,78.56
2018-12-29T23:19:50.745Z,78.44
2018-12-29T23:22:56.571Z,77.95
2018-12-29T23:26:01.890Z,78.03
2018-12-29T23:29:07.366Z,77.96
2018-12-29T23:32:12.644Z,77.95
2018-12-29T23:35:18.254Z,77.81
2018-12-29T23:38:23.530Z,77.93
2018-12-29T23:41:29.049Z,77.60
2018-12-29T23:44:34.329Z,77.57
2018-12-29T23:47:39.735Z,77.60
2018-12-29T23:50:45.022Z,77.63
2018-12-29T23:53:50.889Z,77.41
2018-12-29T23:56:56.540Z,77.50
